Annandale, Minnesota
Current Conditions -  °F | °C
As of 1:34 PM on Friday 24 Oct 2014 (Local Time) from KMGG Reporting Station
Clear Clear  
Wind Chill: 64°   Ceiling: Unl
Heat Index: 64°   Visibility: 10mi
Dew Point: 53°   Wind: 3mph
Humidity: 66%   Direction: 220°SW
Pressure: 29.85"   Gusts: NA
Location:  45.26°N, 94.12°W
Report Text: KMGG 241834Z AUTO 22003KT 10SM CLR 18/12 A2985 RMK AO2 T01800116
Loading
Personal Weather Stations






























Interactive Weather Map New forecast layout! Learn more

10-Day Weather Forecast

Advertisements
Track Severe Weather on mobile